Time;durP1;ratioP1;P1;durP2;ratioP2;P2;SDS_P1;SDS_P2;PMS_P1;PMS_P2;Temp;Humidity;BMP_temperature;BMP_pressure;BME280_temperature;BME280_humidity;BME280_pressure;Samples;Min_cycle;Max_cycle;Signal;HPM_P1;HPM_P2
2022/04/27 00:00:28;;;;;;;9.48;6.50;;;9.90;69.30;;;;;;5083069;28;20203;-84
2022/04/27 00:02:56;;;;;;;8.48;6.30;;;9.90;69.40;;;;;;5083705;28;20191;-85
2022/04/27 00:05:22;;;;;;;10.02;7.53;;;10.00;69.10;;;;;;5084147;28;20180;-84
2022/04/27 00:07:48;;;;;;;7.82;6.90;;;10.00;68.90;;;;;;5074325;28;20295;-84
2022/04/27 00:10:14;;;;;;;10.37;7.33;;;9.90;69.20;;;;;;5094386;28;20235;-84
2022/04/27 00:12:40;;;;;;;10.60;7.45;;;9.80;69.50;;;;;;5076348;28;20650;-84
2022/04/27 00:15:07;;;;;;;12.77;7.38;;;9.80;69.70;;;;;;5079008;28;20211;-85
2022/04/27 00:17:34;;;;;;;8.10;7.10;;;9.80;69.50;;;;;;5082721;28;20182;-84
2022/04/27 00:20:00;;;;;;;11.57;7.13;;;9.80;69.70;;;;;;5102184;28;20268;-83
2022/04/27 00:22:26;;;;;;;16.33;7.35;;;9.80;69.70;;;;;;5080198;28;20234;-84
2022/04/27 00:24:52;;;;;;;9.57;6.80;;;9.90;69.70;;;;;;5098210;28;20708;-83
2022/04/27 00:27:18;;;;;;;15.30;8.03;;;9.90;69.40;;;;;;5080330;28;20200;-83
2022/04/27 00:29:43;;;;;;;13.43;8.07;;;9.90;69.80;;;;;;5097939;28;20188;-84
2022/04/27 00:32:09;;;;;;;11.70;7.77;;;9.80;69.80;;;;;;5079864;28;20176;-84
2022/04/27 00:34:35;;;;;;;9.43;8.07;;;9.80;69.80;;;;;;5097708;28;20170;-84
2022/04/27 00:37:01;;;;;;;9.03;7.20;;;9.80;69.70;;;;;;5097943;28;20176;-84
2022/04/27 00:39:26;;;;;;;13.63;8.23;;;9.80;70.10;;;;;;5076663;28;20415;-84
2022/04/27 00:42:02;;;;;;;10.10;7.07;;;9.80;70.10;;;;;;5093219;28;20438;-84
2022/04/27 00:44:32;;;;;;;11.23;7.60;;;9.80;70.00;;;;;;5080398;28;20698;-85
2022/04/27 00:46:59;;;;;;;13.80;8.63;;;9.80;70.10;;;;;;5080422;28;20249;-84
2022/04/27 00:49:29;;;;;;;9.82;8.10;;;9.70;70.10;;;;;;5079767;28;20176;-84
2022/04/27 00:51:55;;;;;;;12.93;8.50;;;9.70;70.40;;;;;;5074491;28;20181;-84
2022/04/27 00:54:22;;;;;;;14.40;9.70;;;9.70;70.50;;;;;;5078252;28;20192;-84
2022/04/27 00:56:51;;;;;;;17.40;9.20;;;9.70;70.40;;;;;;5098604;28;20769;-84
2022/04/27 00:59:18;;;;;;;16.60;9.00;;;9.60;70.70;;;;;;5098572;28;20703;-84
2022/04/27 01:01:45;;;;;;;12.63;8.50;;;9.60;70.80;;;;;;5096820;28;20204;-85
2022/04/27 01:04:11;;;;;;;12.52;8.98;;;9.60;70.80;;;;;;5097874;28;20210;-84
2022/04/27 01:06:40;;;;;;;10.70;8.45;;;9.60;70.90;;;;;;5079425;28;20176;-85
2022/04/27 01:09:06;;;;;;;13.75;9.02;;;9.60;70.70;;;;;;5071527;28;20654;-84
2022/04/27 01:11:33;;;;;;;15.15;9.80;;;9.60;70.70;;;;;;5097770;28;20203;-86
2022/04/27 01:14:00;;;;;;;14.07;8.55;;;9.50;71.20;;;;;;5081328;28;20208;-85
2022/04/27 01:16:25;;;;;;;14.68;10.20;;;9.50;71.70;;;;;;5101557;28;20160;-86
2022/04/27 01:18:52;;;;;;;15.67;8.87;;;9.50;71.70;;;;;;5100164;28;20261;-85
2022/04/27 01:21:17;;;;;;;13.10;9.82;;;9.50;71.70;;;;;;5079953;28;20568;-85
2022/04/27 01:23:43;;;;;;;14.80;9.40;;;9.50;71.80;;;;;;5072193;28;20284;-85
2022/04/27 01:26:09;;;;;;;16.52;9.80;;;9.60;71.50;;;;;;5098335;28;20234;-85
2022/04/27 01:28:37;;;;;;;15.13;9.15;;;9.60;71.10;;;;;;5097679;28;20675;-85
2022/04/27 01:31:08;;;;;;;17.70;11.73;;;9.70;71.30;;;;;;5094270;28;20381;-85
2022/04/27 01:33:34;;;;;;;14.88;9.50;;;9.60;71.40;;;;;;5064800;28;20176;-86
2022/04/27 01:36:06;;;;;;;14.48;10.23;;;9.50;71.70;;;;;;5085884;28;20182;-85
2022/04/27 01:38:42;;;;;;;14.25;10.50;;;9.60;71.30;;;;;;5101059;28;20191;-85
2022/04/27 01:41:08;;;;;;;12.15;9.70;;;9.60;71.40;;;;;;5110122;28;20234;-84
2022/04/27 01:43:35;;;;;;;12.55;9.60;;;9.60;71.60;;;;;;5098820;28;20184;-85
2022/04/27 01:46:02;;;;;;;12.38;10.43;;;9.60;71.50;;;;;;5077112;28;20188;-84
2022/04/27 01:48:28;;;;;;;15.77;9.85;;;9.50;71.80;;;;;;5102201;28;20204;-84
2022/04/27 01:50:54;;;;;;;10.13;8.63;;;9.40;72.20;;;;;;5107270;28;20222;-85
2022/04/27 01:56:06;;;;;;;16.05;10.63;;;9.50;71.90;;;;;;5103150;28;20666;-85
2022/04/27 01:58:32;;;;;;;19.80;10.80;;;9.60;71.80;;;;;;5097798;28;20179;-85
2022/04/27 02:00:58;;;;;;;13.05;9.98;;;9.60;71.50;;;;;;5080515;28;20211;-85
2022/04/27 02:03:24;;;;;;;12.52;10.05;;;9.60;71.20;;;;;;5080458;28;20183;-85
2022/04/27 02:05:52;;;;;;;12.70;9.00;;;9.60;71.20;;;;;;5081245;28;20839;-85
2022/04/27 02:08:18;;;;;;;14.32;10.40;;;9.50;71.50;;;;;;5096592;28;20215;-85
2022/04/27 02:10:45;;;;;;;15.70;9.75;;;9.40;72.10;;;;;;5078175;28;20778;-85
2022/04/27 02:13:18;;;;;;;13.27;10.15;;;9.30;72.40;;;;;;5076624;28;20183;-85
2022/04/27 02:15:45;;;;;;;11.63;9.30;;;9.40;72.00;;;;;;5078708;28;20560;-85
2022/04/27 02:18:11;;;;;;;17.38;11.27;;;9.30;72.00;;;;;;5078457;28;20191;-85
2022/04/27 02:20:37;;;;;;;18.83;9.70;;;9.30;72.60;;;;;;5097225;28;20200;-84
2022/04/27 02:23:03;;;;;;;14.87;9.30;;;9.30;72.60;;;;;;5078972;28;20180;-85
2022/04/27 02:25:29;;;;;;;12.30;10.20;;;9.30;72.60;;;;;;5080549;28;20429;-84
2022/04/27 02:27:55;;;;;;;12.20;9.02;;;9.20;72.50;;;;;;5078161;28;20474;-84
2022/04/27 02:30:21;;;;;;;12.70;9.60;;;9.10;73.00;;;;;;5082139;28;20782;-85
2022/04/27 02:32:47;;;;;;;16.30;10.75;;;9.20;73.10;;;;;;5099258;28;20172;-84
2022/04/27 02:35:14;;;;;;;13.93;10.63;;;9.10;73.30;;;;;;5106584;28;20168;-85
2022/04/27 02:37:40;;;;;;;15.38;10.68;;;9.20;73.30;;;;;;5088946;28;20555;-85
2022/04/27 02:40:10;;;;;;;15.65;11.65;;;9.10;73.10;;;;;;5097295;28;20192;-85
2022/04/27 02:42:36;;;;;;;15.50;10.38;;;9.10;73.20;;;;;;5080707;28;20188;-85
2022/04/27 02:45:02;;;;;;;18.97;11.07;;;9.00;73.60;;;;;;5080173;28;20275;-84
2022/04/27 02:47:28;;;;;;;15.77;11.25;;;9.00;73.40;;;;;;5096634;28;20454;-85
2022/04/27 02:52:37;;;;;;;14.65;10.63;;;9.00;73.70;;;;;;5098342;28;20252;-85
2022/04/27 02:55:04;;;;;;;16.57;10.90;;;8.90;74.10;;;;;;5099245;28;20219;-85
2022/04/27 02:57:33;;;;;;;17.25;11.23;;;8.90;74.10;;;;;;5102037;28;20175;-85
2022/04/27 02:59:59;;;;;;;17.60;10.65;;;8.80;74.50;;;;;;5093098;28;20664;-85
2022/04/27 03:02:24;;;;;;;16.10;10.93;;;8.80;74.70;;;;;;5078208;28;20175;-85
2022/04/27 03:04:50;;;;;;;14.50;11.03;;;8.70;75.00;;;;;;5093539;28;20437;-85
2022/04/27 03:07:16;;;;;;;21.57;11.30;;;8.70;76.10;;;;;;5116503;28;20854;-85
2022/04/27 03:09:42;;;;;;;24.70;11.70;;;8.70;75.20;;;;;;5084982;28;20445;-85
2022/04/27 03:12:08;;;;;;;24.13;13.07;;;8.70;75.20;;;;;;5091512;28;20188;-85
2022/04/27 03:14:34;;;;;;;22.08;12.25;;;8.70;75.40;;;;;;5079826;28;20206;-85
2022/04/27 03:16:59;;;;;;;16.77;12.60;;;8.60;75.60;;;;;;5086545;28;20184;-86
2022/04/27 03:19:25;;;;;;;16.33;11.63;;;8.50;76.00;;;;;;5100880;28;20477;-86
2022/04/27 03:21:51;;;;;;;18.20;12.33;;;8.50;76.20;;;;;;5095863;28;20179;-85
2022/04/27 03:24:17;;;;;;;15.90;10.67;;;8.50;76.40;;;;;;5078509;28;20414;-86
2022/04/27 03:26:42;;;;;;;13.73;11.73;;;8.50;76.30;;;;;;5081334;28;20992;-85
2022/04/27 03:29:08;;;;;;;16.50;12.27;;;8.50;76.60;;;;;;5076146;28;20177;-86
2022/04/27 03:31:34;;;;;;;20.23;11.23;;;8.50;76.40;;;;;;5078768;28;20191;-86
2022/04/27 03:34:00;;;;;;;16.07;12.07;;;8.50;76.20;;;;;;5073035;28;20164;-86
2022/04/27 03:36:26;;;;;;;26.57;13.10;;;8.50;75.90;;;;;;5080326;28;20453;-86
2022/04/27 03:38:52;;;;;;;20.23;12.77;;;8.50;76.30;;;;;;5080089;28;20418;-85
2022/04/27 03:41:20;;;;;;;18.45;12.88;;;8.40;76.50;;;;;;5078785;28;20491;-86
2022/04/27 03:43:47;;;;;;;20.83;12.32;;;8.30;77.10;;;;;;5077619;28;20196;-86
2022/04/27 03:46:12;;;;;;;22.10;14.07;;;8.30;77.20;;;;;;5077637;28;20172;-85
2022/04/27 03:48:39;;;;;;;16.77;12.13;;;8.30;77.70;;;;;;5078722;28;20211;-85
2022/04/27 03:51:05;;;;;;;19.83;13.48;;;8.30;77.70;;;;;;5075013;28;20434;-85
2022/04/27 03:53:30;;;;;;;19.03;12.43;;;8.40;77.30;;;;;;5068986;28;20180;-84
2022/04/27 03:55:56;;;;;;;20.13;12.20;;;8.40;76.90;;;;;;5074098;28;20172;-84
2022/04/27 03:58:22;;;;;;;24.10;13.00;;;8.40;76.80;;;;;;5094779;28;20184;-84
2022/04/27 04:00:48;;;;;;;20.03;13.70;;;8.40;77.00;;;;;;5077819;28;20441;-84
2022/04/27 04:03:14;;;;;;;23.93;14.10;;;8.30;77.40;;;;;;5077357;28;20414;-85
2022/04/27 04:05:41;;;;;;;25.73;14.82;;;8.30;78.60;;;;;;5061321;28;20516;-84
2022/04/27 04:08:07;;;;;;;23.02;13.85;;;8.20;77.80;;;;;;5076287;28;20244;-84
2022/04/27 04:10:33;;;;;;;19.40;13.45;;;8.20;77.90;;;;;;5077687;28;20271;-84
2022/04/27 04:12:59;;;;;;;20.25;12.57;;;8.20;78.00;;;;;;5084171;28;20276;-83
2022/04/27 04:15:25;;;;;;;22.63;14.20;;;8.30;77.90;;;;;;5079672;28;20662;-84
2022/04/27 04:17:51;;;;;;;20.30;14.10;;;8.30;77.50;;;;;;5078165;28;20190;-84
2022/04/27 04:20:17;;;;;;;16.83;12.57;;;8.30;77.40;;;;;;5106171;28;20440;-84
2022/04/27 04:22:45;;;;;;;24.05;13.43;;;8.30;77.40;;;;;;5099101;28;20440;-83
2022/04/27 04:30:43;;;;;;;26.58;14.90;;;8.30;77.20;;;;;;5094985;28;20201;-84
2022/04/27 04:33:09;;;;;;;21.97;14.53;;;8.30;77.50;;;;;;5076540;28;20243;-84
2022/04/27 04:35:36;;;;;;;28.02;15.63;;;8.30;77.40;;;;;;5076902;28;20414;-84
2022/04/27 04:38:04;;;;;;;22.77;15.48;;;8.30;77.30;;;;;;5077257;28;20721;-85
2022/04/27 04:40:30;;;;;;;30.40;16.15;;;8.30;77.30;;;;;;5077450;28;20294;-85
2022/04/27 04:42:56;;;;;;;25.80;16.30;;;8.30;77.40;;;;;;5077132;28;20655;-85
2022/04/27 04:45:23;;;;;;;27.33;15.38;;;8.30;77.60;;;;;;5095778;28;20179;-84
2022/04/27 04:47:50;;;;;;;25.85;15.27;;;8.30;77.80;;;;;;5076882;28;20220;-84
2022/04/27 04:50:16;;;;;;;23.52;14.25;;;8.30;77.40;;;;;;5076192;28;20184;-84
2022/04/27 04:52:41;;;;;;;24.55;15.10;;;8.30;77.30;;;;;;5100710;28;20180;-84
2022/04/27 04:55:08;;;;;;;21.97;14.50;;;8.30;77.50;;;;;;5084232;28;20342;-84
2022/04/27 04:57:34;;;;;;;21.92;15.25;;;8.30;77.50;;;;;;5079151;28;20176;-84
2022/04/27 05:00:00;;;;;;;24.02;14.85;;;8.30;77.40;;;;;;5078145;28;20227;-84
2022/04/27 05:02:29;;;;;;;24.13;14.02;;;8.40;77.30;;;;;;5096552;28;20251;-83
2022/04/27 05:04:55;;;;;;;24.70;15.57;;;8.40;77.10;;;;;;5110130;28;20176;-82
2022/04/27 05:07:20;;;;;;;25.50;15.60;;;8.50;76.90;;;;;;5084577;28;20200;-83
2022/04/27 05:09:46;;;;;;;25.23;15.70;;;8.50;76.70;;;;;;5096550;28;20501;-83
2022/04/27 05:12:12;;;;;;;28.53;17.90;;;8.50;76.60;;;;;;5089001;28;20237;-82
2022/04/27 05:14:37;;;;;;;28.57;16.13;;;8.50;76.40;;;;;;5103209;28;20440;-82
2022/04/27 05:17:03;;;;;;;28.50;16.53;;;8.50;76.50;;;;;;5091902;28;20262;-82
2022/04/27 05:19:29;;;;;;;31.95;17.85;;;8.50;76.60;;;;;;5074866;28;20187;-84
2022/04/27 05:21:55;;;;;;;27.33;16.70;;;8.50;76.70;;;;;;5098983;28;20180;-83
2022/04/27 05:24:21;;;;;;;27.13;15.65;;;8.60;76.60;;;;;;5089839;28;20254;-84
2022/04/27 05:26:47;;;;;;;29.30;15.63;;;8.50;76.80;;;;;;5096834;28;20578;-84
2022/04/27 05:32:00;;;;;;;29.65;14.77;;;8.90;77.00;;;;;;5104403;28;20179;-83
2022/04/27 05:34:29;;;;;;;28.88;14.90;;;9.30;75.80;;;;;;5113835;28;20199;-83
2022/04/27 05:36:59;;;;;;;24.15;12.50;;;9.70;74.90;;;;;;5080139;28;20227;-84
2022/04/27 05:39:28;;;;;;;26.92;14.02;;;10.20;73.30;;;;;;5081350;28;20232;-85
2022/04/27 05:41:54;;;;;;;24.27;12.52;;;10.80;71.60;;;;;;5083248;28;20215;-84
2022/04/27 05:44:22;;;;;;;25.20;13.90;;;11.20;69.60;;;;;;5089227;28;20246;-84
2022/04/27 05:46:51;;;;;;;20.67;13.55;;;11.50;67.80;;;;;;5081369;28;20268;-83
2022/04/27 05:49:17;;;;;;;21.20;11.90;;;11.80;66.10;;;;;;5080501;28;20172;-85
2022/04/27 05:51:46;;;;;;;24.38;12.30;;;11.90;66.40;;;;;;5077816;28;20180;-84
2022/04/27 05:54:16;;;;;;;20.40;12.55;;;12.00;65.10;;;;;;5077381;28;20185;-84
2022/04/27 05:56:42;;;;;;;25.50;12.70;;;12.00;64.40;;;;;;5063485;28;20690;-86
2022/04/27 05:59:08;;;;;;;19.63;11.82;;;12.30;63.60;;;;;;5071345;28;20196;-84
2022/04/27 06:01:34;;;;;;;18.33;10.43;;;12.00;64.00;;;;;;5079565;28;20716;-84
2022/04/27 06:04:00;;;;;;;18.40;10.27;;;12.00;64.10;;;;;;5093854;28;20191;-85
2022/04/27 06:06:26;;;;;;;16.73;9.83;;;12.20;64.70;;;;;;5080565;28;20422;-86
2022/04/27 06:08:53;;;;;;;22.08;12.15;;;12.40;63.30;;;;;;5079025;28;20204;-85
2022/04/27 06:11:22;;;;;;;13.73;10.15;;;12.40;62.90;;;;;;5079673;28;20816;-85
2022/04/27 06:13:48;;;;;;;17.80;10.88;;;12.40;62.90;;;;;;5080150;28;20180;-85
2022/04/27 06:16:14;;;;;;;22.73;10.80;;;12.40;62.50;;;;;;5082938;28;20190;-85
2022/04/27 06:18:41;;;;;;;19.25;11.38;;;12.40;62.50;;;;;;5080263;28;20187;-86
2022/04/27 06:21:10;;;;;;;15.80;10.73;;;12.40;62.80;;;;;;5098973;28;20196;-86
2022/04/27 06:23:38;;;;;;;14.73;9.52;;;12.50;63.00;;;;;;5097337;28;20258;-86
2022/04/27 06:26:05;;;;;;;18.08;8.98;;;12.90;62.30;;;;;;5079964;28;20175;-85
2022/04/27 06:28:32;;;;;;;15.95;9.80;;;13.20;61.10;;;;;;5106529;28;20199;-86
2022/04/27 06:30:59;;;;;;;14.23;9.60;;;13.50;59.70;;;;;;5103676;28;20714;-86
2022/04/27 06:33:25;;;;;;;19.35;9.07;;;13.60;58.70;;;;;;5079232;28;20666;-86
2022/04/27 06:35:51;;;;;;;14.20;8.90;;;13.70;57.60;;;;;;5077865;28;20175;-86
2022/04/27 06:38:17;;;;;;;14.80;8.80;;;13.70;57.30;;;;;;5081007;28;20187;-86
2022/04/27 06:40:43;;;;;;;17.27;8.70;;;13.60;56.00;;;;;;5084684;28;20468;-85
2022/04/27 06:43:08;;;;;;;11.98;7.65;;;13.60;56.10;;;;;;5084231;28;20187;-87
2022/04/27 06:45:36;;;;;;;11.57;8.70;;;13.50;55.90;;;;;;5094220;28;20195;-85
2022/04/27 06:48:03;;;;;;;12.75;7.97;;;13.60;55.10;;;;;;5086617;28;20204;-86
2022/04/27 06:50:31;;;;;;;12.57;7.95;;;13.60;54.50;;;;;;5085786;28;20199;-86
2022/04/27 06:52:59;;;;;;;9.85;7.35;;;13.70;54.40;;;;;;5100503;28;20172;-85
2022/04/27 06:55:26;;;;;;;13.02;7.80;;;13.90;54.60;;;;;;5119400;28;20225;-84
2022/04/27 06:57:53;;;;;;;11.40;9.07;;;14.10;53.10;;;;;;5083081;28;20528;-85
2022/04/27 07:00:19;;;;;;;10.48;6.88;;;14.00;52.10;;;;;;5100514;28;20206;-84
2022/04/27 07:02:44;;;;;;;11.53;7.33;;;13.90;52.40;;;;;;5076105;28;20180;-84
2022/04/27 07:05:17;;;;;;;13.03;6.67;;;13.60;52.30;;;;;;5080381;28;20650;-84
2022/04/27 07:07:44;;;;;;;8.18;6.05;;;13.50;52.90;;;;;;5079082;28;20460;-84
2022/04/27 07:10:11;;;;;;;8.15;5.63;;;13.40;52.00;;;;;;5079671;28;20598;-84
2022/04/27 07:12:38;;;;;;;9.82;6.68;;;13.20;52.00;;;;;;5100790;28;20178;-86
2022/04/27 07:15:04;;;;;;;10.10;6.32;;;13.00;52.70;;;;;;5069040;28;20180;-84
2022/04/27 07:17:30;;;;;;;12.35;6.72;;;12.80;53.80;;;;;;5085972;28;20183;-84
2022/04/27 07:19:57;;;;;;;7.97;6.13;;;12.80;53.80;;;;;;5104286;28;20208;-84
2022/04/27 07:22:23;;;;;;;9.05;6.10;;;12.60;54.30;;;;;;5086186;28;20224;-84
2022/04/27 07:24:53;;;;;;;9.27;6.50;;;12.40;55.00;;;;;;5084466;28;20179;-83
2022/04/27 07:27:19;;;;;;;10.00;6.13;;;12.30;54.90;;;;;;5083205;28;20483;-84
2022/04/27 07:29:45;;;;;;;10.82;6.93;;;12.30;55.10;;;;;;5064683;28;20267;-84
2022/04/27 07:32:11;;;;;;;9.70;6.18;;;12.20;55.20;;;;;;5081778;28;20214;-84
2022/04/27 07:34:37;;;;;;;7.47;5.33;;;12.10;55.20;;;;;;5082506;28;20172;-84
2022/04/27 07:37:05;;;;;;;9.60;5.60;;;11.90;56.70;;;;;;5100986;28;20175;-85
2022/04/27 07:39:31;;;;;;;7.00;4.93;;;12.00;56.10;;;;;;5100441;28;20466;-84
2022/04/27 07:41:58;;;;;;;8.35;5.38;;;12.10;55.50;;;;;;5076864;28;20184;-84
2022/04/27 07:44:23;;;;;;;10.38;5.07;;;12.00;55.50;;;;;;5081057;28;20195;-84
2022/04/27 07:46:50;;;;;;;8.13;5.50;;;12.00;54.90;;;;;;5073921;28;20187;-84
2022/04/27 07:49:19;;;;;;;12.35;5.00;;;12.00;54.70;;;;;;5081206;28;20414;-84
2022/04/27 07:51:46;;;;;;;7.95;5.10;;;12.10;54.10;;;;;;5076104;28;20234;-84
2022/04/27 07:54:12;;;;;;;5.53;4.65;;;12.10;53.50;;;;;;5081278;28;20191;-84
2022/04/27 07:56:38;;;;;;;9.18;4.65;;;12.00;53.80;;;;;;5104715;28;20190;-84
2022/04/27 07:59:04;;;;;;;10.50;4.32;;;12.00;54.10;;;;;;5064695;28;20183;-85
2022/04/27 08:01:30;;;;;;;7.13;5.23;;;12.00;53.30;;;;;;5065582;28;20211;-85
2022/04/27 08:03:56;;;;;;;6.20;4.72;;;12.00;53.60;;;;;;5061739;28;20494;-84
2022/04/27 08:06:22;;;;;;;14.70;5.88;;;12.10;53.40;;;;;;5095945;28;20218;-84
2022/04/27 08:08:48;;;;;;;6.93;4.80;;;12.10;53.20;;;;;;5091503;28;20671;-84
2022/04/27 08:11:15;;;;;;;8.03;4.83;;;12.10;52.80;;;;;;5099302;28;20219;-84
2022/04/27 08:13:42;;;;;;;11.57;4.40;;;12.10;52.40;;;;;;5101063;28;20192;-84
2022/04/27 08:16:09;;;;;;;7.90;5.18;;;12.20;51.90;;;;;;5101172;28;20183;-85
2022/04/27 08:18:35;;;;;;;15.75;5.07;;;12.20;51.70;;;;;;5102794;28;20178;-84
2022/04/27 08:21:15;;;;;;;10.02;5.43;;;12.20;51.70;;;;;;5102974;28;20278;-84
2022/04/27 08:23:46;;;;;;;7.13;5.60;;;12.20;51.70;;;;;;5101615;28;20204;-84
2022/04/27 08:26:20;;;;;;;6.50;4.90;;;12.30;51.80;;;;;;5120170;28;20174;-85
2022/04/27 08:28:46;;;;;;;5.35;4.40;;;12.30;51.90;;;;;;5102375;28;20198;-84
2022/04/27 08:31:14;;;;;;;9.27;4.53;;;12.30;50.70;;;;;;5103453;28;20207;-85
2022/04/27 08:33:40;;;;;;;5.80;4.35;;;12.40;50.50;;;;;;5099868;28;20422;-84
2022/04/27 08:36:06;;;;;;;6.43;4.57;;;12.50;49.40;;;;;;5099944;28;20171;-85
2022/04/27 08:38:34;;;;;;;9.40;5.80;;;12.50;49.40;;;;;;5119248;28;20178;-85
2022/04/27 08:41:00;;;;;;;7.68;4.05;;;12.50;49.60;;;;;;5108210;28;20565;-84
2022/04/27 08:43:27;;;;;;;6.15;3.28;;;12.60;49.40;;;;;;5109687;28;20179;-84
2022/04/27 08:45:55;;;;;;;4.70;3.90;;;12.60;49.90;;;;;;5107583;28;20179;-84
2022/04/27 08:48:21;;;;;;;5.85;4.70;;;12.70;48.90;;;;;;5106385;28;20872;-86
2022/04/27 08:50:48;;;;;;;9.13;4.75;;;12.70;49.50;;;;;;5104969;28;20199;-86
2022/04/27 08:53:14;;;;;;;5.90;4.20;;;12.70;49.70;;;;;;5086234;28;20169;-86
2022/04/27 08:55:41;;;;;;;4.70;4.20;;;12.70;48.80;;;;;;5080731;28;20183;-86
2022/04/27 08:58:19;;;;;;;10.23;5.32;;;12.80;48.60;;;;;;5081716;28;20402;-86
2022/04/27 09:00:45;;;;;;;5.80;4.60;;;12.80;48.90;;;;;;5099694;28;20335;-86
2022/04/27 09:03:31;;;;;;;6.78;4.80;;;12.90;48.20;;;;;;5080057;28;20213;-86
2022/04/27 09:05:59;;;;;;;8.13;4.60;;;12.80;48.60;;;;;;5080541;28;20188;-86
2022/04/27 09:08:40;;;;;;;4.80;4.25;;;12.60;49.10;;;;;;5080483;28;20211;-85
2022/04/27 09:11:13;;;;;;;5.20;4.45;;;12.70;48.90;;;;;;5080629;28;20794;-86
2022/04/27 09:13:40;;;;;;;6.38;4.30;;;12.80;48.50;;;;;;5102047;28;20168;-86
2022/04/27 09:16:07;;;;;;;7.38;4.07;;;12.90;47.70;;;;;;5102181;28;20250;-84
2022/04/27 09:21:58;;;;;;;10.23;4.57;;;13.10;47.50;;;;;;5105341;28;20225;-86
2022/04/27 09:24:26;;;;;;;12.90;6.10;;;13.30;46.90;;;;;;5082213;28;20173;-86
2022/04/27 09:27:12;;;;;;;9.30;5.90;;;13.30;46.70;;;;;;5046039;28;20196;-85
2022/04/27 09:29:40;;;;;;;6.00;5.18;;;13.40;46.60;;;;;;5046947;28;20250;-86
2022/04/27 09:32:06;;;;;;;9.52;5.82;;;13.30;46.80;;;;;;5064186;28;20192;-86
2022/04/27 09:34:44;;;;;;;14.00;6.65;;;13.40;46.10;;;;;;5081717;28;20236;-86
2022/04/27 09:37:18;;;;;;;8.85;6.15;;;13.30;46.30;;;;;;5074785;28;20180;-86
2022/04/27 09:40:18;;;;;;;9.10;6.00;;;13.30;45.90;;;;;;5082585;28;20200;-86
2022/04/27 09:42:46;;;;;;;6.97;5.07;;;12.90;47.40;;;;;;5078196;28;20272;-86
2022/04/27 09:45:23;;;;;;;6.30;5.15;;;13.10;47.30;;;;;;5078845;28;20181;-86
2022/04/27 09:48:01;;;;;;;8.70;6.65;;;13.20;47.30;;;;;;5080555;28;20209;-86
2022/04/27 09:50:47;;;;;;;7.43;5.75;;;13.10;46.80;;;;;;5076026;28;20192;-87
2022/04/27 09:53:17;;;;;;;8.20;6.65;;;13.10;46.80;;;;;;5096303;28;20180;-85
2022/04/27 09:55:48;;;;;;;8.82;6.60;;;13.10;46.80;;;;;;5098425;28;20666;-84
2022/04/27 09:58:16;;;;;;;10.95;6.88;;;13.00;47.40;;;;;;5097194;28;20194;-86
2022/04/27 10:00:43;;;;;;;6.97;6.25;;;13.20;46.40;;;;;;5081257;28;20206;-86
2022/04/27 10:03:18;;;;;;;8.68;7.13;;;13.10;47.00;;;;;;5085423;28;20199;-85
2022/04/27 10:05:46;;;;;;;7.55;6.95;;;13.20;47.30;;;;;;5082727;28;20190;-86
2022/04/27 10:08:13;;;;;;;8.57;7.68;;;13.50;45.70;;;;;;5081187;28;20230;-86
2022/04/27 10:10:41;;;;;;;10.38;7.35;;;13.80;44.60;;;;;;5083241;28;20204;-86
2022/04/27 10:13:11;;;;;;;7.13;6.50;;;13.90;44.00;;;;;;5082582;28;20225;-86
2022/04/27 10:15:46;;;;;;;7.68;6.75;;;13.80;44.20;;;;;;5105437;28;20537;-86
2022/04/27 10:18:16;;;;;;;8.88;7.65;;;13.80;44.50;;;;;;5090894;28;20263;-84
2022/04/27 10:20:43;;;;;;;9.27;8.38;;;14.00;43.70;;;;;;5092573;28;20219;-86
2022/04/27 10:23:15;;;;;;;10.45;7.40;;;14.10;43.20;;;;;;5088512;28;20179;-85
2022/04/27 10:25:41;;;;;;;7.93;6.97;;;14.10;43.10;;;;;;5105495;28;20180;-85
2022/04/27 10:28:22;;;;;;;8.38;7.38;;;14.10;43.20;;;;;;5072252;28;20230;-83
2022/04/27 10:30:48;;;;;;;9.10;6.45;;;14.10;44.00;;;;;;5090572;28;20192;-85
2022/04/27 10:33:48;;;;;;;10.60;7.63;;;14.20;43.10;;;;;;5108785;28;20191;-85
2022/04/27 10:36:29;;;;;;;10.00;7.22;;;14.30;43.50;;;;;;5089230;28;20191;-85
2022/04/27 10:39:13;;;;;;;8.98;8.02;;;14.50;43.00;;;;;;5107568;28;20179;-86
2022/04/27 10:41:48;;;;;;;8.60;6.90;;;14.60;42.60;;;;;;5089888;28;20175;-85
2022/04/27 10:44:14;;;;;;;9.13;7.53;;;14.70;43.50;;;;;;5088115;28;20160;-85
2022/04/27 10:46:43;;;;;;;9.07;7.93;;;14.80;42.40;;;;;;5087141;28;20555;-85
2022/04/27 10:49:24;;;;;;;10.38;8.68;;;14.80;42.10;;;;;;5103282;28;20204;-85
2022/04/27 10:52:00;;;;;;;11.23;8.48;;;14.80;42.00;;;;;;5122583;28;20334;-84
2022/04/27 10:54:31;;;;;;;13.98;6.72;;;14.80;42.50;;;;;;5102978;28;20251;-84
2022/04/27 10:57:16;;;;;;;8.48;6.35;;;14.80;43.40;;;;;;5086182;28;20176;-83
2022/04/27 10:59:51;;;;;;;11.02;6.30;;;15.10;43.60;;;;;;5085940;28;20286;-85
2022/04/27 11:02:33;;;;;;;10.07;6.97;;;15.30;43.10;;;;;;5086541;28;20182;-85
2022/04/27 11:04:59;;;;;;;8.18;7.38;;;15.40;42.20;;;;;;5087504;28;20186;-85
2022/04/27 11:07:44;;;;;;;9.25;6.78;;;15.40;41.90;;;;;;5089489;28;20638;-85
2022/04/27 11:10:14;;;;;;;11.10;7.88;;;15.30;42.10;;;;;;5088177;28;20199;-85
2022/04/27 11:12:46;;;;;;;9.48;7.63;;;14.80;43.00;;;;;;5087786;28;20170;-85
2022/04/27 11:15:15;;;;;;;8.32;7.45;;;14.50;43.80;;;;;;5103964;28;20176;-85
2022/04/27 11:17:41;;;;;;;8.55;7.55;;;14.50;45.10;;;;;;5087213;28;20276;-85
2022/04/27 11:20:28;;;;;;;8.80;7.90;;;14.30;45.00;;;;;;5086111;28;20302;-85
2022/04/27 11:22:55;;;;;;;10.27;8.45;;;14.30;45.30;;;;;;5102743;28;20493;-85
2022/04/27 11:25:29;;;;;;;14.68;8.75;;;14.30;44.70;;;;;;5086958;28;20206;-85
2022/04/27 11:27:55;;;;;;;8.15;7.32;;;14.60;43.80;;;;;;5089715;28;20231;-84
2022/04/27 11:30:22;;;;;;;8.60;7.70;;;14.80;43.50;;;;;;5100894;28;20211;-85
2022/04/27 11:32:49;;;;;;;10.65;9.20;;;15.00;42.50;;;;;;5083890;28;20566;-85
2022/04/27 11:35:16;;;;;;;9.00;8.10;;;15.00;42.20;;;;;;5102597;28;20171;-84
2022/04/27 11:37:42;;;;;;;8.52;7.53;;;15.00;41.70;;;;;;5089093;28;20175;-85
2022/04/27 11:40:13;;;;;;;10.53;8.27;;;15.10;41.80;;;;;;5106358;28;20204;-86
2022/04/27 11:42:43;;;;;;;9.57;7.68;;;15.20;41.20;;;;;;5079304;28;20176;-85
2022/04/27 11:45:11;;;;;;;7.32;6.63;;;15.20;40.90;;;;;;5087605;28;20200;-85
2022/04/27 11:47:37;;;;;;;9.05;8.15;;;15.30;42.40;;;;;;5092501;28;20196;-86
2022/04/27 11:50:05;;;;;;;7.80;7.10;;;15.40;41.10;;;;;;5110445;28;20199;-86
2022/04/27 11:52:31;;;;;;;7.95;7.15;;;15.50;41.10;;;;;;5080397;28;20240;-86
2022/04/27 11:55:10;;;;;;;9.05;7.88;;;15.40;41.40;;;;;;5089186;28;20233;-86
2022/04/27 11:57:36;;;;;;;17.98;10.13;;;15.40;41.30;;;;;;5081879;28;20202;-86
2022/04/27 12:00:03;;;;;;;9.43;8.52;;;15.40;41.00;;;;;;5070588;28;20208;-85
2022/04/27 12:02:29;;;;;;;9.35;7.80;;;15.70;40.30;;;;;;5094748;28;20278;-88
2022/04/27 12:04:59;;;;;;;8.80;8.00;;;15.80;39.70;;;;;;5084491;28;20310;-85
2022/04/27 12:07:25;;;;;;;9.68;7.85;;;16.00;39.20;;;;;;5086161;28;20199;-86
2022/04/27 12:10:04;;;;;;;10.32;6.85;;;16.10;39.30;;;;;;5083459;28;20196;-87
2022/04/27 12:12:31;;;;;;;8.82;7.20;;;15.40;40.00;;;;;;5070590;28;20252;-87
2022/04/27 12:15:05;;;;;;;11.98;8.13;;;15.50;40.10;;;;;;5082104;28;20245;-86
2022/04/27 12:17:53;;;;;;;12.60;8.10;;;15.40;40.50;;;;;;5079990;28;20191;-85
2022/04/27 12:20:37;;;;;;;8.32;7.53;;;15.40;40.90;;;;;;5066669;28;20197;-85
2022/04/27 12:23:05;;;;;;;7.40;5.40;;;15.60;40.70;;;;;;5090617;28;20171;-87
2022/04/27 12:25:38;;;;;;;8.98;6.30;;;15.80;40.00;;;;;;5101142;28;20247;-86
2022/04/27 12:28:05;;;;;;;7.45;6.68;;;15.90;40.10;;;;;;5081503;28;20558;-86
2022/04/27 12:30:32;;;;;;;11.15;6.90;;;16.20;39.90;;;;;;5076210;28;20737;-86
2022/04/27 12:32:59;;;;;;;7.97;7.03;;;16.40;39.80;;;;;;5075533;28;20180;-86
2022/04/27 12:38:19;;;;;;;9.27;6.95;;;16.20;38.70;;;;;;5099575;28;20213;-87
2022/04/27 12:40:45;;;;;;;8.80;7.60;;;15.50;40.00;;;;;;5099029;28;20203;-87
2022/04/27 12:43:14;;;;;;;8.68;7.10;;;15.30;41.10;;;;;;5064026;28;20195;-85
2022/04/27 12:46:01;;;;;;;9.43;8.43;;;15.10;41.80;;;;;;5081723;28;20184;-86
2022/04/27 12:48:29;;;;;;;9.35;7.43;;;15.10;41.00;;;;;;5081777;28;20203;-85
2022/04/27 12:50:54;;;;;;;10.60;7.00;;;15.10;41.60;;;;;;5081934;28;20200;-85
2022/04/27 12:53:21;;;;;;;9.30;7.80;;;14.90;41.90;;;;;;5084089;28;20172;-86
2022/04/27 12:56:04;;;;;;;7.70;6.90;;;14.90;42.30;;;;;;5102704;28;20172;-86
2022/04/27 12:58:29;;;;;;;9.85;7.22;;;15.30;41.70;;;;;;5103717;28;20172;-86
2022/04/27 13:00:55;;;;;;;9.37;7.40;;;15.40;41.70;;;;;;5086749;28;20252;-86
2022/04/27 13:03:23;;;;;;;10.87;8.17;;;15.30;41.40;;;;;;5086547;28;20421;-85
2022/04/27 13:05:50;;;;;;;12.70;8.65;;;15.30;42.50;;;;;;5082711;28;20418;-85